createdAt,value
2018-10-18T00:02:54.760Z,151.97
2018-10-18T00:07:58.542Z,133.37
2018-10-18T00:13:02.552Z,99.40
2018-10-18T00:18:06.333Z,128.63
2018-10-18T00:23:10.071Z,86.53
2018-10-18T00:28:13.807Z,106.67
2018-10-18T00:33:17.619Z,113.23
2018-10-18T00:38:21.400Z,124.63
2018-10-18T00:43:25.122Z,124.10
2018-10-18T00:48:28.867Z,146.73
2018-10-18T00:53:32.590Z,125.90
2018-10-18T00:58:36.300Z,126.87
2018-10-18T01:03:40.024Z,125.80
2018-10-18T01:08:43.792Z,112.47
2018-10-18T01:13:47.747Z,99.27
2018-10-18T01:18:51.544Z,102.70
2018-10-18T01:23:55.302Z,101.57
2018-10-18T01:28:58.991Z,67.17
2018-10-18T01:34:02.707Z,92.07
2018-10-18T01:39:07.112Z,92.03
2018-10-18T01:44:11.094Z,89.63
2018-10-18T01:49:14.723Z,96.40
2018-10-18T01:54:18.558Z,100.80
2018-10-18T01:59:22.192Z,76.57
2018-10-18T02:04:25.924Z,93.70
2018-10-18T02:09:29.651Z,80.60
2018-10-18T02:14:33.379Z,68.70
2018-10-18T02:19:37.116Z,78.83
2018-10-18T02:24:40.848Z,85.40
2018-10-18T02:29:44.582Z,65.90
2018-10-18T02:34:48.332Z,80.63
2018-10-18T02:39:52.047Z,75.67
2018-10-18T02:44:55.836Z,62.63
2018-10-18T02:49:59.568Z,79.20
2018-10-18T02:55:03.283Z,85.00
2018-10-18T03:00:07.266Z,74.73
2018-10-18T03:05:10.931Z,74.33
2018-10-18T03:10:14.655Z,70.83
2018-10-18T03:15:18.412Z,50.50
2018-10-18T03:20:22.138Z,73.10
2018-10-18T03:25:25.844Z,72.73
2018-10-18T03:30:29.561Z,65.80
2018-10-18T03:35:33.280Z,76.43
2018-10-18T03:40:37.039Z,74.63
2018-10-18T03:45:40.775Z,61.80
2018-10-18T03:50:44.516Z,55.00
2018-10-18T03:55:48.239Z,65.13
2018-10-18T04:00:51.967Z,59.17
2018-10-18T04:05:55.730Z,80.30
2018-10-18T04:10:59.411Z,72.93
2018-10-18T04:16:03.165Z,62.40
2018-10-18T04:21:07.275Z,66.80
2018-10-18T04:26:11.009Z,66.63
2018-10-18T04:31:14.743Z,68.23
2018-10-18T04:36:18.552Z,72.17
2018-10-18T04:41:22.184Z,72.27
2018-10-18T04:46:26.064Z,57.50
2018-10-18T04:51:29.815Z,68.57
2018-10-18T04:56:33.611Z,58.40
2018-10-18T05:01:37.283Z,67.93
2018-10-18T05:06:41.063Z,72.83
2018-10-18T05:11:44.791Z,61.20
2018-10-18T05:16:48.534Z,55.43
2018-10-18T05:21:52.263Z,39.37
2018-10-18T05:26:56.023Z,59.03
2018-10-18T05:31:59.748Z,55.03
2018-10-18T05:37:03.604Z,60.93
2018-10-18T05:42:07.323Z,56.57
2018-10-18T05:47:11.085Z,67.90
2018-10-18T05:52:14.829Z,50.43
2018-10-18T05:57:18.563Z,41.00
2018-10-18T06:02:22.293Z,53.33
2018-10-18T06:07:26.011Z,53.43
2018-10-18T06:12:29.735Z,43.90
2018-10-18T06:17:33.500Z,38.00
2018-10-18T06:22:37.288Z,36.63
2018-10-18T06:27:41.848Z,43.57
2018-10-18T06:32:45.649Z,46.53
2018-10-18T06:37:49.379Z,40.63
2018-10-18T06:42:53.159Z,36.57
2018-10-18T06:47:56.989Z,36.37
2018-10-18T06:53:00.556Z,48.70
2018-10-18T06:58:04.311Z,41.43
2018-10-18T07:03:08.072Z,30.80
2018-10-18T07:08:11.895Z,46.93
2018-10-18T07:13:15.613Z,34.90
2018-10-18T07:18:19.359Z,43.20
2018-10-18T07:23:23.075Z,42.83
2018-10-18T07:28:26.857Z,45.07
2018-10-18T07:33:30.564Z,39.93
2018-10-18T07:38:35.356Z,39.90
2018-10-18T07:43:39.084Z,47.10
2018-10-18T07:48:42.847Z,43.97
2018-10-18T07:53:46.573Z,48.90
2018-10-18T07:58:50.322Z,47.70
2018-10-18T08:03:54.056Z,38.53
2018-10-18T08:08:57.793Z,38.33
2018-10-18T08:14:01.607Z,43.37
2018-10-18T08:19:05.860Z,56.20
2018-10-18T08:24:09.635Z,48.87
2018-10-18T08:29:13.379Z,46.90
2018-10-18T08:34:17.115Z,47.67
2018-10-18T08:39:20.908Z,43.10
2018-10-18T08:44:24.738Z,33.40
2018-10-18T08:49:28.400Z,26.07
2018-10-18T08:54:32.115Z,33.60
2018-10-18T08:59:35.832Z,37.67
2018-10-18T09:04:39.544Z,31.67
2018-10-18T09:09:43.256Z,26.90
2018-10-18T09:14:46.980Z,26.40
2018-10-18T09:19:50.725Z,23.80
2018-10-18T09:24:54.468Z,26.63
2018-10-18T09:29:58.167Z,20.93
2018-10-18T09:35:01.883Z,20.43
2018-10-18T09:40:06.571Z,21.30
2018-10-18T09:45:11.781Z,26.80
2018-10-18T09:50:15.488Z,15.87
2018-10-18T09:55:19.289Z,23.90
2018-10-18T10:00:28.503Z,17.00
2018-10-18T10:05:32.238Z,19.40
2018-10-18T10:10:36.447Z,23.10
2018-10-18T10:15:40.211Z,22.50
2018-10-18T10:20:43.959Z,22.97
2018-10-18T10:25:47.698Z,12.43
2018-10-18T10:30:51.496Z,19.40
2018-10-18T10:35:55.210Z,18.20
2018-10-18T10:40:59.435Z,17.27
2018-10-18T10:46:03.210Z,21.43
2018-10-18T10:51:07.009Z,15.10
2018-10-18T10:56:10.825Z,22.03
2018-10-18T11:01:19.444Z,15.20
2018-10-18T11:06:23.496Z,20.23
2018-10-18T11:11:27.240Z,21.20
2018-10-18T11:16:31.011Z,22.87
2018-10-18T11:21:34.896Z,20.60
2018-10-18T11:26:38.797Z,17.43
2018-10-18T11:31:45.105Z,21.33
2018-10-18T11:36:48.967Z,19.50
2018-10-18T11:41:52.727Z,16.30
2018-10-18T11:46:56.467Z,17.17
2018-10-18T11:52:00.239Z,18.23
2018-10-18T11:57:03.972Z,19.67
2018-10-18T12:02:07.768Z,20.20
2018-10-18T12:07:11.475Z,17.93
2018-10-18T12:12:15.208Z,22.30
2018-10-18T12:17:19.037Z,23.60
2018-10-18T12:22:22.783Z,20.27
2018-10-18T12:27:26.932Z,22.60
2018-10-18T12:32:30.707Z,24.37
2018-10-18T12:37:34.611Z,30.50
2018-10-18T12:42:40.256Z,26.13
2018-10-18T12:47:43.967Z,26.37
2018-10-18T12:52:47.716Z,25.13
2018-10-18T12:57:51.572Z,21.77
2018-10-18T13:02:55.310Z,24.37
2018-10-18T13:07:59.168Z,30.60
2018-10-18T13:13:02.859Z,33.13
2018-10-18T13:18:06.643Z,23.40
2018-10-18T13:23:11.622Z,22.93
2018-10-18T13:28:15.317Z,9.90
2018-10-18T13:33:19.031Z,5.53
2018-10-18T13:38:22.751Z,2.50
2018-10-18T13:43:26.504Z,3.20
2018-10-18T13:48:30.226Z,1.67
2018-10-18T13:53:37.108Z,3.00
2018-10-18T13:58:41.001Z,2.30
2018-10-18T14:03:44.712Z,3.60
2018-10-18T14:08:48.509Z,3.70
2018-10-18T14:13:52.311Z,3.70
2018-10-18T14:18:55.996Z,5.63
2018-10-18T14:23:59.727Z,7.00
2018-10-18T14:29:03.517Z,6.87
2018-10-18T14:34:07.635Z,8.13
2018-10-18T14:39:11.434Z,9.57
2018-10-18T14:44:15.875Z,6.70
2018-10-18T14:49:19.560Z,6.70
2018-10-18T14:54:23.443Z,8.17
2018-10-18T14:59:27.267Z,8.97
2018-10-18T15:04:31.069Z,8.87
2018-10-18T15:09:34.792Z,11.07
2018-10-18T15:14:38.831Z,12.63
2018-10-18T15:19:42.556Z,7.93
2018-10-18T15:24:46.335Z,12.10
2018-10-18T15:29:50.311Z,9.00
2018-10-18T15:34:54.268Z,9.40
2018-10-18T15:39:57.924Z,14.13
2018-10-18T15:45:01.704Z,10.27
2018-10-18T15:50:06.869Z,7.67
2018-10-18T15:55:10.568Z,5.63
2018-10-18T16:00:14.375Z,12.10
2018-10-18T16:05:18.427Z,4.20
2018-10-18T16:10:22.051Z,8.83
2018-10-18T16:15:25.775Z,6.37
2018-10-18T16:20:29.542Z,20.10
2018-10-18T16:25:33.272Z,9.50
2018-10-18T16:30:36.999Z,5.10
2018-10-18T16:35:40.753Z,6.17
2018-10-18T16:40:44.495Z,9.80
2018-10-18T16:45:48.192Z,3.07
2018-10-18T16:50:51.904Z,4.30
2018-10-18T16:55:55.618Z,4.93
2018-10-18T17:00:59.444Z,3.37
2018-10-18T17:06:03.225Z,6.07
2018-10-18T17:11:06.928Z,4.73
2018-10-18T17:16:10.697Z,6.67
2018-10-18T17:21:14.465Z,6.30
2018-10-18T17:26:18.244Z,4.40
2018-10-18T17:31:22.024Z,9.17
2018-10-18T17:36:26.000Z,5.00
2018-10-18T17:41:29.779Z,9.77
2018-10-18T17:46:36.577Z,13.93
2018-10-18T17:51:40.335Z,6.43
2018-10-18T17:56:44.160Z,10.23
2018-10-18T18:01:48.680Z,13.67
2018-10-18T18:06:52.461Z,6.63
2018-10-18T18:11:56.170Z,8.60
2018-10-18T18:16:59.889Z,9.50
2018-10-18T18:22:03.642Z,10.50
2018-10-18T18:27:07.395Z,13.00
2018-10-18T18:32:11.153Z,15.97
2018-10-18T18:37:14.855Z,9.30
2018-10-18T18:42:18.567Z,6.47
2018-10-18T18:47:22.308Z,6.00
2018-10-18T18:52:26.002Z,8.63
2018-10-18T18:57:29.804Z,8.77
2018-10-18T19:02:33.548Z,11.30
2018-10-18T19:07:37.326Z,6.43
2018-10-18T19:12:41.009Z,8.10
2018-10-18T19:17:44.811Z,7.10
2018-10-18T19:22:48.686Z,6.67
2018-10-18T19:27:52.315Z,12.17
2018-10-18T19:32:56.075Z,4.70
2018-10-18T19:37:59.830Z,8.27
2018-10-18T19:43:03.496Z,8.10
2018-10-18T19:48:07.203Z,8.93
2018-10-18T19:53:10.917Z,6.33
2018-10-18T19:58:14.711Z,6.40
2018-10-18T20:03:18.487Z,7.23
2018-10-18T20:08:22.281Z,9.60
2018-10-18T20:13:25.981Z,9.80
2018-10-18T20:18:29.845Z,7.40
2018-10-18T20:23:33.495Z,5.03
2018-10-18T20:28:37.279Z,3.23
2018-10-18T20:33:41.007Z,6.47
2018-10-18T20:38:44.715Z,10.87
2018-10-18T20:43:48.432Z,7.27
2018-10-18T20:48:52.222Z,3.87
2018-10-18T20:53:56.020Z,11.43
2018-10-18T20:58:59.777Z,8.20
2018-10-18T21:04:03.471Z,6.70
2018-10-18T21:09:08.530Z,4.53
2018-10-18T21:14:12.159Z,7.47
2018-10-18T21:19:15.915Z,3.83
2018-10-18T21:24:19.663Z,5.50
2018-10-18T21:29:23.388Z,4.40
2018-10-18T21:34:27.120Z,11.03
2018-10-18T21:39:33.169Z,7.80
2018-10-18T21:44:37.724Z,8.33
2018-10-18T21:49:41.455Z,6.10
2018-10-18T21:54:45.181Z,6.43
2018-10-18T21:59:48.904Z,6.63
2018-10-18T22:04:52.642Z,8.23
2018-10-18T22:09:56.375Z,6.10
2018-10-18T22:15:00.104Z,8.50
2018-10-18T22:20:04.168Z,4.60
2018-10-18T22:25:08.758Z,5.93
2018-10-18T22:30:12.488Z,5.50
2018-10-18T22:35:16.329Z,11.23
2018-10-18T22:40:19.963Z,3.20
2018-10-18T22:45:23.655Z,4.83
2018-10-18T22:50:27.383Z,4.80
2018-10-18T22:55:31.104Z,9.70
2018-10-18T23:00:34.828Z,6.53
2018-10-18T23:05:38.548Z,4.50
2018-10-18T23:10:42.316Z,4.93
2018-10-18T23:15:46.031Z,6.63
2018-10-18T23:20:49.875Z,4.73
2018-10-18T23:25:53.619Z,4.93
2018-10-18T23:30:57.349Z,6.30
2018-10-18T23:36:01.079Z,4.10
2018-10-18T23:41:05.355Z,6.00
2018-10-18T23:46:09.082Z,3.70
2018-10-18T23:51:12.860Z,2.60
2018-10-18T23:56:16.524Z,4.20
